»·PEaware :: WAT563 KPDX-KSEA

WAT563 :: KPDX-KSEA

FLIGHT INFORMATION

Flight Status: Arrived
Operator:
Walker Air Transport
More flights by this operator :: More flights under this callsign
Pilot: Trevel L P. (20826)
Aircraft: DEHAVILLAND DASH 8 400
(DH8D)
More flights by this aircraft type
Origin: KPDX Portland Intl
United States
Destination: KSEA Seattle-Tacoma Intl
United States
More flights between these airports :: More routes between these airports
Route: PTLD1 BTG OLM2
File this flight plan on PilotEdge
Remarks: RMK / SIMBRIEF
Altitude:
(Current/Filed)
16,000ft
Speed:
(Current/Filed)
313kts
Departed: 21-Feb-21 02:17 PM
Arrived: 21-Feb-21 02:59 PM
Distance/Time
Traveled:
112nm/0:42
Distance/Time
To Go:
Arrived

Flight Plot

Page will automatically refresh every two minutes.


Map Options




Map Legend


Flown Route
Filed Route
Departure Airport
Arrival Airport
Navaid (VOR, NDB)
Fix

Horizontal Profiles

Position Reports

Time Latitude Longitude Heading Altitude Ground
Speed
21-Feb-21 13:44 45.590374 -122.598759 209 38ft 0kts
21-Feb-21 13:45 45.590374 -122.598759 209 38ft 0kts
21-Feb-21 13:46 45.590374 -122.598759 209 38ft 0kts
21-Feb-21 13:47 45.590374 -122.598759 209 38ft 0kts
21-Feb-21 13:48 45.590374 -122.598759 209 38ft 0kts
21-Feb-21 13:49 45.590374 -122.598759 209 38ft 0kts
21-Feb-21 13:50 45.590374 -122.598759 209 38ft 0kts
21-Feb-21 13:51 45.590374 -122.598759 209 38ft 0kts
21-Feb-21 13:52 45.590374 -122.598759 209 38ft 0kts
21-Feb-21 13:53 45.590374 -122.598759 209 38ft 0kts
21-Feb-21 13:54 45.590374 -122.598759 209 38ft 0kts
21-Feb-21 13:55 45.590374 -122.598759 209 38ft 0kts
21-Feb-21 13:56 45.590374 -122.598759 209 38ft 0kts
21-Feb-21 13:57 45.590374 -122.598759 209 38ft 0kts
21-Feb-21 13:58 45.590374 -122.598759 209 38ft 0kts
21-Feb-21 13:59 45.590374 -122.598759 209 38ft 0kts
21-Feb-21 14:00 45.590374 -122.598759 209 38ft 0kts
21-Feb-21 14:01 45.590374 -122.598759 209 38ft 0kts
21-Feb-21 14:02 45.590374 -122.598759 209 38ft 0kts
21-Feb-21 14:03 45.590374 -122.598759 209 38ft 0kts
21-Feb-21 14:04 45.590374 -122.598759 209 38ft 0kts
21-Feb-21 14:05 45.590719 -122.598445 219 38ft 2kts
21-Feb-21 14:06 45.590840 -122.597729 298 38ft 0kts
21-Feb-21 14:07 45.590840 -122.597729 298 38ft 0kts
21-Feb-21 14:08 45.590839 -122.597728 298 38ft 0kts
21-Feb-21 14:09 45.591389 -122.600355 243 38ft 0kts
21-Feb-21 14:10 45.588524 -122.601207 121 38ft 0kts
21-Feb-21 14:11 45.586285 -122.595451 119 38ft 0kts
21-Feb-21 14:12 45.583684 -122.588823 119 38ft 0kts
21-Feb-21 14:13 45.581737 -122.583882 133 38ft 0kts
21-Feb-21 14:14 45.580758 -122.584549 297 38ft 0kts
21-Feb-21 14:15 45.591779 -122.613729 293 843ft 35kts
21-Feb-21 14:16 45.616074 -122.673268 296 3072ft 50kts
21-Feb-21 14:17 45.643996 -122.741276 298 5689ft 53kts
21-Feb-21 14:18 45.694895 -122.734349 51 8475ft 133kts
21-Feb-21 14:19 45.729100 -122.642858 54 10986ft 117kts
21-Feb-21 14:20 45.787614 -122.606963 348 13174ft 109kts
21-Feb-21 14:21 45.849578 -122.616683 342 15017ft 97kts
21-Feb-21 14:22 45.912343 -122.632564 342 15960ft 127kts
21-Feb-21 14:23 45.983894 -122.650579 343 15986ft 172kts
21-Feb-21 14:24 46.061541 -122.669569 343 15985ft 198kts
21-Feb-21 14:25 46.141683 -122.689756 343 15982ft 211kts
21-Feb-21 14:26 46.223316 -122.710257 343 15977ft 218kts
21-Feb-21 14:27 46.305384 -122.731029 343 15967ft 221kts
21-Feb-21 14:28 46.388272 -122.751961 343 15951ft 223kts
21-Feb-21 14:29 46.471102 -122.773077 343 15934ft 224kts
21-Feb-21 14:30 46.554489 -122.794332 342 15925ft 278kts
21-Feb-21 14:31 46.634299 -122.814738 342 15926ft 272kts
21-Feb-21 14:32 46.718033 -122.836300 342 15925ft 247kts
21-Feb-21 14:33 46.800585 -122.857415 343 14926ft 248kts
21-Feb-21 14:34 46.879069 -122.877641 342 13535ft 247kts
21-Feb-21 14:35 46.953453 -122.893959 356 12209ft 246kts
21-Feb-21 14:36 47.026702 -122.832685 32 11895ft 234kts
21-Feb-21 14:37 47.092850 -122.748005 34 11801ft 232kts
21-Feb-21 14:38 47.159152 -122.662362 33 11748ft 230kts
21-Feb-21 14:39 47.224630 -122.578371 33 11821ft 225kts
21-Feb-21 14:40 47.289535 -122.494705 33 11850ft 224kts
21-Feb-21 14:41 47.364156 -122.450145 6 10908ft 240kts
21-Feb-21 14:42 47.439906 -122.425125 6 9483ft 247kts
21-Feb-21 14:43 47.517569 -122.411716 356 7977ft 246kts
21-Feb-21 14:44 47.591169 -122.410872 356 6472ft 239kts
21-Feb-21 14:45 47.657067 -122.409790 356 5089ft 227kts
21-Feb-21 14:46 47.716745 -122.408767 356 4977ft 185kts
21-Feb-21 14:47 47.773613 -122.390713 55 4901ft 165kts
21-Feb-21 14:48 47.778032 -122.307848 102 4402ft 158kts
21-Feb-21 14:49 47.740021 -122.274875 195 3935ft 151kts
21-Feb-21 14:50 47.701507 -122.288869 196 3414ft 126kts
21-Feb-21 14:51 47.664534 -122.299088 189 3020ft 106kts
21-Feb-21 14:52 47.623717 -122.304194 186 2935ft 100kts
21-Feb-21 14:53 47.589053 -122.305890 185 2890ft 111kts
21-Feb-21 14:54 47.554481 -122.306802 184 2195ft 123kts
21-Feb-21 14:55 47.521342 -122.307375 183 1625ft 121kts
21-Feb-21 14:56 47.488930 -122.307169 182 919ft 124kts
21-Feb-21 14:57 47.457474 -122.307942 180 441ft 102kts
21-Feb-21 14:58 47.452157 -122.306311 143 440ft 31kts
21-Feb-21 14:59 47.449339 -122.306187 179 440ft 0kts
21-Feb-21 15:00 47.446836 -122.305632 92 440ft 0kts
21-Feb-21 15:01 47.446632 -122.304807 135 440ft 0kts
21-Feb-21 15:03 47.446632 -122.304807 135 440ft 0kts
21-Feb-21 15:04 47.446632 -122.304807 135 441ft 0kts
21-Feb-21 15:05 47.446632 -122.304807 135 440ft 0kts
21-Feb-21 15:06 47.446632 -122.304806 135 440ft 0kts
21-Feb-21 15:07 47.446632 -122.304806 135 440ft 0kts
21-Feb-21 15:08 47.446632 -122.304806 135 440ft 0kts
21-Feb-21 15:09 47.446632 -122.304806 135 440ft 0kts
21-Feb-21 15:10 47.446632 -122.304806 135 440ft 0kts
21-Feb-21 15:11 47.446632 -122.304806 135 440ft 0kts

Navigation Log

Ident Type
Flight plan parsing failed, navigation log unavailable